createdAt,value
2023-09-17T00:01:44.852Z,6.90
2023-09-17T00:04:12.057Z,6.40
2023-09-17T00:06:39.090Z,7.10
2023-09-17T00:09:06.046Z,6.93
2023-09-17T00:11:33.093Z,6.88
2023-09-17T00:14:00.078Z,6.85
2023-09-17T00:16:32.454Z,6.55
2023-09-17T00:19:00.042Z,6.40
2023-09-17T00:21:27.032Z,7.25
2023-09-17T00:23:54.060Z,7.13
2023-09-17T00:26:20.991Z,6.53
2023-09-17T00:28:47.964Z,6.72
2023-09-17T00:31:14.920Z,6.85
2023-09-17T00:33:41.912Z,7.13
2023-09-17T00:36:08.798Z,6.72
2023-09-17T00:38:35.664Z,6.65
2023-09-17T00:41:02.581Z,6.93
2023-09-17T00:43:31.379Z,6.90
2023-09-17T00:45:58.725Z,6.90
2023-09-17T00:48:28.203Z,6.70
2023-09-17T00:50:56.712Z,6.55
2023-09-17T00:53:23.968Z,6.78
2023-09-17T00:55:51.157Z,7.20
2023-09-17T00:58:18.099Z,6.28
2023-09-17T01:00:45.503Z,7.50
2023-09-17T01:03:13.891Z,6.72
2023-09-17T01:05:44.256Z,6.90
2023-09-17T01:08:11.531Z,6.97
2023-09-17T01:10:42.362Z,7.28
2023-09-17T01:13:10.348Z,7.00
2023-09-17T01:15:38.870Z,7.10
2023-09-17T01:18:10.736Z,7.68
2023-09-17T01:21:05.953Z,7.35
2023-09-17T01:23:42.345Z,7.05
2023-09-17T01:26:18.162Z,7.45
2023-09-17T01:28:45.584Z,7.70
2023-09-17T01:31:13.682Z,7.57
2023-09-17T01:33:40.696Z,7.30
2023-09-17T01:36:12.441Z,8.00
2023-09-17T01:38:48.022Z,7.50
2023-09-17T01:41:16.810Z,8.13
2023-09-17T01:43:45.817Z,7.65
2023-09-17T01:46:13.271Z,7.32
2023-09-17T01:48:43.639Z,7.07
2023-09-17T01:51:12.604Z,7.60
2023-09-17T01:53:40.925Z,7.45
2023-09-17T01:56:07.829Z,8.07
2023-09-17T01:58:35.260Z,7.25
2023-09-17T02:01:02.483Z,7.15
2023-09-17T02:03:30.309Z,7.70
2023-09-17T02:05:58.290Z,8.02
2023-09-17T02:08:25.531Z,7.88
2023-09-17T02:10:52.507Z,7.43
2023-09-17T02:13:19.513Z,7.57
2023-09-17T02:15:46.637Z,7.35
2023-09-17T02:18:13.905Z,7.55
2023-09-17T02:20:41.620Z,7.75
2023-09-17T02:23:10.626Z,7.30
2023-09-17T02:25:37.844Z,7.75
2023-09-17T02:28:05.091Z,7.80
2023-09-17T02:30:32.275Z,8.07
2023-09-17T02:32:59.364Z,8.02
2023-09-17T02:35:26.501Z,7.63
2023-09-17T02:37:53.553Z,7.85
2023-09-17T02:40:21.740Z,7.40
2023-09-17T02:42:50.267Z,8.40
2023-09-17T02:45:17.348Z,7.95
2023-09-17T02:47:44.382Z,7.95
2023-09-17T02:50:11.412Z,7.60
2023-09-17T02:52:39.386Z,7.85
2023-09-17T02:55:06.896Z,7.85
2023-09-17T02:57:33.804Z,8.18
2023-09-17T03:00:00.863Z,10.85
2023-09-17T03:02:27.819Z,9.75
2023-09-17T03:04:59.604Z,9.10
2023-09-17T03:07:27.563Z,9.80
2023-09-17T03:09:54.473Z,13.55
2023-09-17T03:12:21.357Z,12.65
2023-09-17T03:14:48.280Z,12.15
2023-09-17T03:17:15.239Z,12.30
2023-09-17T03:19:43.572Z,13.85
2023-09-17T03:22:10.545Z,13.93
2023-09-17T03:24:40.993Z,12.25
2023-09-17T03:27:11.922Z,11.63
2023-09-17T03:29:38.972Z,10.25
2023-09-17T03:32:06.260Z,10.40
2023-09-17T03:34:34.932Z,10.02
2023-09-17T03:37:01.829Z,9.38
2023-09-17T03:39:28.695Z,9.18
2023-09-17T03:41:55.583Z,10.13
2023-09-17T03:44:22.542Z,8.70
2023-09-17T03:46:50.030Z,8.70
2023-09-17T03:49:17.085Z,9.15
2023-09-17T03:51:44.073Z,8.60
2023-09-17T03:54:11.035Z,9.02
2023-09-17T03:56:38.005Z,8.57
2023-09-17T03:59:05.188Z,9.13
2023-09-17T04:01:33.564Z,9.15
2023-09-17T04:04:00.746Z,9.07
2023-09-17T04:06:30.365Z,9.13
2023-09-17T04:08:57.329Z,9.40
2023-09-17T04:11:24.522Z,9.45
2023-09-17T04:13:51.703Z,8.98
2023-09-17T04:16:22.278Z,9.18
2023-09-17T04:18:50.819Z,9.23
2023-09-17T04:21:17.768Z,9.10
2023-09-17T04:23:44.706Z,9.18
2023-09-17T04:26:14.371Z,9.77
2023-09-17T04:28:41.330Z,9.57
2023-09-17T04:31:08.266Z,9.15
2023-09-17T04:33:35.132Z,9.30
2023-09-17T04:36:02.119Z,9.82
2023-09-17T04:38:29.448Z,10.00
2023-09-17T04:40:56.667Z,11.02
2023-09-17T04:43:24.500Z,10.85
2023-09-17T04:45:51.633Z,10.07
2023-09-17T04:48:18.585Z,10.13
2023-09-17T04:50:48.092Z,9.52
2023-09-17T04:53:15.580Z,9.52
2023-09-17T04:55:42.469Z,9.32
2023-09-17T04:58:09.481Z,10.38
2023-09-17T05:00:36.430Z,10.40
2023-09-17T05:03:03.701Z,10.50
2023-09-17T05:05:31.950Z,9.85
2023-09-17T05:07:58.855Z,10.13
2023-09-17T05:10:27.089Z,10.15
2023-09-17T05:12:54.305Z,10.05
2023-09-17T05:15:22.360Z,10.75
2023-09-17T05:17:50.308Z,12.50
2023-09-17T05:20:19.370Z,24.92
2023-09-17T05:22:46.431Z,28.48
2023-09-17T05:25:13.371Z,22.83
2023-09-17T05:27:40.283Z,16.40
2023-09-17T05:30:09.085Z,14.73
2023-09-17T05:32:36.795Z,12.65
2023-09-17T05:35:04.639Z,12.02
2023-09-17T05:37:32.427Z,11.45
2023-09-17T05:39:59.860Z,11.60
2023-09-17T05:42:27.557Z,11.40
2023-09-17T05:44:54.516Z,11.30
2023-09-17T05:47:22.208Z,11.68
2023-09-17T05:49:49.208Z,11.38
2023-09-17T05:52:17.265Z,11.55
2023-09-17T05:54:44.181Z,11.68
2023-09-17T05:57:11.086Z,11.73
2023-09-17T05:59:38.078Z,11.10
2023-09-17T06:02:05.122Z,11.23
2023-09-17T06:04:32.002Z,11.40
2023-09-17T06:06:58.969Z,11.73
2023-09-17T06:09:25.881Z,12.13
2023-09-17T06:11:52.873Z,10.70
2023-09-17T06:14:20.127Z,11.52
2023-09-17T06:16:57.393Z,11.00
2023-09-17T06:19:26.696Z,11.00
2023-09-17T06:21:54.649Z,12.13
2023-09-17T06:24:21.634Z,12.48
2023-09-17T06:26:48.625Z,10.88
2023-09-17T06:29:15.753Z,11.75
2023-09-17T06:31:43.374Z,11.13
2023-09-17T06:34:10.877Z,11.75
2023-09-17T06:36:39.224Z,11.65
2023-09-17T06:39:07.890Z,11.85
2023-09-17T06:41:38.064Z,11.60
2023-09-17T06:44:06.542Z,11.93
2023-09-17T06:46:33.725Z,12.07
2023-09-17T06:49:00.833Z,12.23
2023-09-17T06:51:27.787Z,12.13
2023-09-17T06:53:54.727Z,11.52
2023-09-17T06:56:25.024Z,12.75
2023-09-17T06:58:52.342Z,13.00
2023-09-17T07:01:20.222Z,12.32
2023-09-17T07:03:48.047Z,12.23
2023-09-17T07:06:15.326Z,12.63
2023-09-17T07:08:42.263Z,12.85
2023-09-17T07:11:09.195Z,12.40
2023-09-17T07:13:36.166Z,12.57
2023-09-17T07:16:03.142Z,13.07
2023-09-17T07:18:32.885Z,14.95
2023-09-17T07:20:59.891Z,12.48
2023-09-17T07:23:26.882Z,13.73
2023-09-17T07:25:53.958Z,13.52
2023-09-17T07:28:21.802Z,13.88
2023-09-17T07:30:57.480Z,12.70
2023-09-17T07:33:25.428Z,12.85
2023-09-17T07:35:53.796Z,12.55
2023-09-17T07:38:20.800Z,11.90
2023-09-17T07:40:49.045Z,13.70
2023-09-17T07:43:16.105Z,11.98
2023-09-17T07:45:43.056Z,12.98
2023-09-17T07:48:10.008Z,12.75
2023-09-17T07:50:36.943Z,13.05
2023-09-17T07:53:04.079Z,12.73
2023-09-17T07:55:31.227Z,11.50
2023-09-17T07:57:58.365Z,12.25
2023-09-17T08:00:26.195Z,12.00
2023-09-17T08:02:53.483Z,11.80
2023-09-17T08:05:20.755Z,12.05
2023-09-17T08:07:47.758Z,12.07
2023-09-17T08:10:14.901Z,12.52
2023-09-17T08:12:41.822Z,11.43
2023-09-17T08:15:09.144Z,12.30
2023-09-17T08:17:36.215Z,11.90
2023-09-17T08:20:03.916Z,11.15
2023-09-17T08:22:30.971Z,11.57
2023-09-17T08:24:57.920Z,12.27
2023-09-17T08:27:24.858Z,12.35
2023-09-17T08:29:52.994Z,12.23
2023-09-17T08:32:19.891Z,10.95
2023-09-17T08:34:47.146Z,11.80
2023-09-17T08:37:14.212Z,12.30
2023-09-17T08:39:41.398Z,11.88
2023-09-17T08:42:09.143Z,12.00
2023-09-17T08:44:39.101Z,11.90
2023-09-17T08:47:06.347Z,11.90
2023-09-17T08:49:33.465Z,11.45
2023-09-17T08:52:07.199Z,11.27
2023-09-17T08:54:43.887Z,11.40
2023-09-17T08:57:15.383Z,11.35
2023-09-17T08:59:47.839Z,10.88
2023-09-17T09:02:26.921Z,10.60
2023-09-17T09:04:55.479Z,10.38
2023-09-17T09:07:26.816Z,11.00
2023-09-17T09:09:55.243Z,11.50
2023-09-17T09:12:22.697Z,10.50
2023-09-17T09:14:50.034Z,10.43
2023-09-17T09:17:16.906Z,9.80
2023-09-17T09:19:43.919Z,11.48
2023-09-17T09:22:10.903Z,11.23
2023-09-17T09:24:49.600Z,10.45
2023-09-17T09:27:16.802Z,11.07
2023-09-17T09:29:44.745Z,10.55
2023-09-17T09:32:13.481Z,10.00
2023-09-17T09:34:44.823Z,11.07
2023-09-17T09:37:12.049Z,9.90
2023-09-17T09:39:42.831Z,9.98
2023-09-17T09:42:12.870Z,9.60
2023-09-17T09:44:39.761Z,9.10
2023-09-17T09:47:07.614Z,9.50
2023-09-17T09:49:45.566Z,8.52
2023-09-17T09:52:16.934Z,9.02
2023-09-17T09:54:46.029Z,9.77
2023-09-17T09:57:15.730Z,10.15
2023-09-17T09:59:46.822Z,9.10
2023-09-17T10:02:16.812Z,10.27
2023-09-17T10:04:47.887Z,10.20
2023-09-17T10:07:16.655Z,11.82
2023-09-17T10:09:44.275Z,9.10
2023-09-17T10:12:11.782Z,8.18
2023-09-17T10:14:39.453Z,14.27
2023-09-17T10:17:12.687Z,8.98
2023-09-17T10:19:41.828Z,7.50
2023-09-17T10:22:11.190Z,8.40
2023-09-17T10:24:39.902Z,7.88
2023-09-17T10:27:10.334Z,8.02
2023-09-17T10:29:39.929Z,7.97
2023-09-17T10:32:10.654Z,7.70
2023-09-17T10:34:39.472Z,7.60
2023-09-17T10:37:08.000Z,6.38
2023-09-17T10:39:37.789Z,6.93
2023-09-17T10:42:09.577Z,6.72
2023-09-17T10:44:41.104Z,6.40
2023-09-17T10:47:12.790Z,5.90
2023-09-17T10:49:41.851Z,6.28
2023-09-17T10:52:12.949Z,7.00
2023-09-17T10:54:40.081Z,6.05
2023-09-17T10:57:26.135Z,7.57
2023-09-17T10:59:55.246Z,6.80
2023-09-17T11:02:25.985Z,6.32
2023-09-17T11:04:54.160Z,6.72
2023-09-17T11:07:21.597Z,6.68
2023-09-17T11:09:50.493Z,6.80
2023-09-17T11:12:17.566Z,6.90
2023-09-17T11:14:47.212Z,7.00
2023-09-17T11:17:19.400Z,6.85
2023-09-17T11:19:46.447Z,6.70
2023-09-17T11:22:14.275Z,7.22
2023-09-17T11:24:45.653Z,6.22
2023-09-17T11:27:13.478Z,6.25
2023-09-17T11:29:46.681Z,5.88
2023-09-17T11:32:22.366Z,6.50
2023-09-17T11:34:49.743Z,6.10
2023-09-17T11:37:18.334Z,6.90
2023-09-17T11:39:52.745Z,7.07
2023-09-17T11:42:23.725Z,6.65
2023-09-17T11:44:53.689Z,6.10
2023-09-17T11:47:21.772Z,6.25
2023-09-17T11:49:51.333Z,6.65
2023-09-17T11:52:18.398Z,5.85
2023-09-17T11:54:53.607Z,6.30
2023-09-17T11:57:27.901Z,6.30
2023-09-17T11:59:56.859Z,6.00
2023-09-17T12:02:24.526Z,6.28
2023-09-17T12:04:53.437Z,6.35
2023-09-17T12:07:21.700Z,6.45
2023-09-17T12:10:08.861Z,6.80
2023-09-17T12:12:38.007Z,6.78
2023-09-17T12:15:07.388Z,6.68
2023-09-17T12:17:43.933Z,6.80
2023-09-17T12:20:58.169Z,6.68
2023-09-17T12:23:55.138Z,6.68
2023-09-17T12:27:36.297Z,6.18
2023-09-17T12:30:09.662Z,6.68
2023-09-17T12:32:38.030Z,6.97
2023-09-17T12:35:07.344Z,6.43
2023-09-17T12:37:34.796Z,6.10
2023-09-17T12:40:01.877Z,7.10
2023-09-17T12:42:29.997Z,6.60
2023-09-17T12:44:57.101Z,5.70
2023-09-17T12:47:26.263Z,5.85
2023-09-17T12:49:55.916Z,6.07
2023-09-17T12:52:23.429Z,5.85
2023-09-17T12:54:55.028Z,5.65
2023-09-17T12:57:23.984Z,5.82
2023-09-17T12:59:52.626Z,6.15
2023-09-17T13:02:32.627Z,6.10
2023-09-17T13:05:00.296Z,5.43
2023-09-17T13:07:31.744Z,6.07
2023-09-17T13:10:01.122Z,6.07
2023-09-17T13:12:28.837Z,5.75
2023-09-17T13:14:59.726Z,5.55
2023-09-17T13:17:30.171Z,5.55
2023-09-17T13:20:01.154Z,5.45
2023-09-17T13:22:28.475Z,5.03
2023-09-17T13:24:58.029Z,4.57
2023-09-17T13:27:25.048Z,5.25
2023-09-17T13:29:56.337Z,4.93
2023-09-17T13:32:23.431Z,5.63
2023-09-17T13:34:50.996Z,5.32
2023-09-17T13:37:19.374Z,6.50
2023-09-17T13:39:50.878Z,5.28
2023-09-17T13:42:18.216Z,5.45
2023-09-17T13:44:45.536Z,5.43
2023-09-17T13:47:13.572Z,6.00
2023-09-17T13:49:42.261Z,5.43
2023-09-17T13:52:10.040Z,5.72
2023-09-17T13:54:43.565Z,5.70
2023-09-17T13:57:11.167Z,5.90
2023-09-17T13:59:38.140Z,5.72
2023-09-17T14:02:06.070Z,5.60
2023-09-17T14:04:34.643Z,6.13
2023-09-17T14:07:02.171Z,5.80
2023-09-17T14:09:29.072Z,5.72
2023-09-17T14:11:56.071Z,6.07
2023-09-17T14:14:23.038Z,6.30
2023-09-17T14:16:49.971Z,6.18
2023-09-17T14:19:19.632Z,6.40
2023-09-17T14:21:47.569Z,7.00
2023-09-17T14:24:14.558Z,6.18
2023-09-17T14:26:41.474Z,12.25
2023-09-17T14:29:08.444Z,27.70
2023-09-17T14:31:35.698Z,21.15
2023-09-17T14:34:02.990Z,12.07
2023-09-17T14:36:30.027Z,7.10
2023-09-17T14:38:56.925Z,6.90
2023-09-17T14:41:23.966Z,6.97
2023-09-17T14:43:51.015Z,6.40
2023-09-17T14:46:18.048Z,5.75
2023-09-17T14:48:44.996Z,5.93
2023-09-17T14:51:11.960Z,6.13
2023-09-17T14:53:39.104Z,6.90
2023-09-17T14:56:06.039Z,6.60
2023-09-17T14:58:32.999Z,6.13
2023-09-17T15:01:03.303Z,5.90
2023-09-17T15:03:33.867Z,6.13
2023-09-17T15:06:01.109Z,6.00
2023-09-17T15:08:28.109Z,6.07
2023-09-17T15:10:55.177Z,6.35
2023-09-17T15:13:22.263Z,6.25
2023-09-17T15:15:50.138Z,5.80
2023-09-17T15:18:17.591Z,5.70
2023-09-17T15:20:47.268Z,5.82
2023-09-17T15:23:14.242Z,5.80
2023-09-17T15:25:44.275Z,5.38
2023-09-17T15:28:11.375Z,5.75
2023-09-17T15:30:38.264Z,5.75
2023-09-17T15:33:05.779Z,5.88
2023-09-17T15:35:33.409Z,6.40
2023-09-17T15:38:06.744Z,10.25
2023-09-17T15:40:33.949Z,6.55
2023-09-17T15:43:01.370Z,6.00
2023-09-17T15:45:28.310Z,6.75
2023-09-17T15:47:55.214Z,5.72
2023-09-17T15:50:22.192Z,5.80
2023-09-17T15:52:50.482Z,6.45
2023-09-17T15:55:18.299Z,6.18
2023-09-17T15:57:45.513Z,7.20
2023-09-17T16:00:14.094Z,8.13
2023-09-17T16:02:41.489Z,8.77
2023-09-17T16:05:08.865Z,8.50
2023-09-17T16:07:40.611Z,9.75
2023-09-17T16:10:08.775Z,8.60
2023-09-17T16:12:36.601Z,8.45
2023-09-17T16:15:04.326Z,8.98
2023-09-17T16:17:34.072Z,9.05
2023-09-17T16:20:01.289Z,10.90
2023-09-17T16:22:28.315Z,9.77
2023-09-17T16:24:55.264Z,9.50
2023-09-17T16:27:22.324Z,8.90
2023-09-17T16:29:49.416Z,14.82
2023-09-17T16:32:16.843Z,22.73
2023-09-17T16:34:43.979Z,21.63
2023-09-17T16:37:10.971Z,20.45
2023-09-17T16:39:38.335Z,12.35
2023-09-17T16:42:05.653Z,10.45
2023-09-17T16:44:32.556Z,11.90
2023-09-17T16:47:00.533Z,11.23
2023-09-17T16:49:27.556Z,10.88
2023-09-17T16:51:54.585Z,10.40
2023-09-17T16:54:21.990Z,12.00
2023-09-17T16:56:48.966Z,11.00
2023-09-17T16:59:15.899Z,10.38
2023-09-17T17:01:43.267Z,10.65
2023-09-17T17:04:10.371Z,10.38
2023-09-17T17:06:37.378Z,11.82
2023-09-17T17:09:05.708Z,11.95
2023-09-17T17:11:33.763Z,12.25
2023-09-17T17:14:01.094Z,12.40
2023-09-17T17:16:28.468Z,12.27
2023-09-17T17:18:55.431Z,11.85
2023-09-17T17:21:23.365Z,11.05
2023-09-17T17:23:51.678Z,11.45
2023-09-17T17:26:19.028Z,11.43
2023-09-17T17:28:46.625Z,11.10
2023-09-17T17:31:13.682Z,11.95
2023-09-17T17:33:40.593Z,13.13
2023-09-17T17:36:07.579Z,12.85
2023-09-17T17:38:35.329Z,14.57
2023-09-17T17:41:02.671Z,13.80
2023-09-17T17:43:29.704Z,13.52
2023-09-17T17:45:56.786Z,14.80
2023-09-17T17:48:23.806Z,13.38
2023-09-17T17:50:50.723Z,14.40
2023-09-17T17:53:19.514Z,14.18
2023-09-17T17:55:46.855Z,14.10
2023-09-17T17:58:13.835Z,14.63
2023-09-17T18:00:40.811Z,13.43
2023-09-17T18:03:07.783Z,13.95
2023-09-17T18:05:37.422Z,13.45
2023-09-17T18:08:05.109Z,14.32
2023-09-17T18:10:32.325Z,16.00
2023-09-17T18:12:59.287Z,16.75
2023-09-17T18:15:27.474Z,15.80
2023-09-17T18:17:55.677Z,14.77
2023-09-17T18:20:23.038Z,16.48
2023-09-17T18:22:50.108Z,17.63
2023-09-17T18:25:17.108Z,17.23
2023-09-17T18:27:44.205Z,17.10
2023-09-17T18:30:11.687Z,15.77
2023-09-17T18:32:38.647Z,16.40
2023-09-17T18:35:06.744Z,17.00
2023-09-17T18:37:34.573Z,15.77
2023-09-17T18:40:01.649Z,16.25
2023-09-17T18:42:30.265Z,17.42
2023-09-17T18:44:58.240Z,16.42
2023-09-17T18:47:25.237Z,17.77
2023-09-17T18:49:55.004Z,17.73
2023-09-17T18:52:23.656Z,19.58
2023-09-17T18:54:50.585Z,17.30
2023-09-17T18:57:17.571Z,18.77
2023-09-17T18:59:45.859Z,18.67
2023-09-17T19:02:12.961Z,18.02
2023-09-17T19:04:39.921Z,18.45
2023-09-17T19:07:07.125Z,21.27
2023-09-17T19:09:34.144Z,18.80
2023-09-17T19:12:04.817Z,18.08
2023-09-17T19:14:31.821Z,18.30
2023-09-17T19:17:04.747Z,18.45
2023-09-17T19:19:33.053Z,18.20
2023-09-17T19:22:00.133Z,17.73
2023-09-17T19:24:27.063Z,18.77
2023-09-17T19:26:54.374Z,17.83
2023-09-17T19:29:25.263Z,17.77
2023-09-17T19:31:52.437Z,18.80
2023-09-17T19:34:19.543Z,18.02
2023-09-17T19:36:46.530Z,18.35
2023-09-17T19:39:13.541Z,18.83
2023-09-17T19:41:40.516Z,18.27
2023-09-17T19:44:08.907Z,18.20
2023-09-17T19:46:35.981Z,18.15
2023-09-17T19:49:02.948Z,17.15
2023-09-17T19:51:34.477Z,17.67
2023-09-17T19:54:01.458Z,17.88
2023-09-17T19:56:29.473Z,17.65
2023-09-17T19:58:56.786Z,19.27
2023-09-17T20:01:23.771Z,18.40
2023-09-17T20:03:53.727Z,18.52
2023-09-17T20:06:20.868Z,18.73
2023-09-17T20:08:47.855Z,17.65
2023-09-17T20:11:14.846Z,17.95
2023-09-17T20:13:42.330Z,18.00
2023-09-17T20:16:09.590Z,17.15
2023-09-17T20:18:38.675Z,17.17
2023-09-17T20:21:07.023Z,17.17
2023-09-17T20:23:40.121Z,16.95
2023-09-17T20:28:39.041Z,16.33
2023-09-17T20:31:08.960Z,17.05
2023-09-17T20:33:35.849Z,17.38
2023-09-17T20:36:02.761Z,16.52
2023-09-17T20:38:29.659Z,16.63
2023-09-17T20:40:59.294Z,17.60
2023-09-17T20:43:26.591Z,16.67
2023-09-17T20:45:53.547Z,17.15
2023-09-17T20:48:20.516Z,18.02
2023-09-17T20:50:47.421Z,17.50
2023-09-17T20:53:14.337Z,17.95
2023-09-17T20:55:41.243Z,19.67
2023-09-17T20:58:08.145Z,20.13
2023-09-17T21:00:35.076Z,20.08
2023-09-17T21:03:02.079Z,20.40
2023-09-17T21:05:29.113Z,20.25
2023-09-17T21:07:56.095Z,20.17
2023-09-17T21:10:23.674Z,20.55
2023-09-17T21:12:51.442Z,19.95
2023-09-17T21:15:18.413Z,19.15
2023-09-17T21:17:45.581Z,18.60
2023-09-17T21:20:19.847Z,18.08
2023-09-17T21:22:49.266Z,18.60
2023-09-17T21:25:17.453Z,19.42
2023-09-17T21:27:45.310Z,19.48
2023-09-17T21:30:13.761Z,20.98
2023-09-17T21:32:43.871Z,22.50
2023-09-17T21:35:14.018Z,21.65
2023-09-17T21:37:41.044Z,21.05
2023-09-17T21:40:09.044Z,21.67
2023-09-17T21:42:37.019Z,20.50
2023-09-17T21:45:04.798Z,20.30
2023-09-17T21:47:31.796Z,20.02
2023-09-17T21:50:00.991Z,19.70
2023-09-17T21:52:32.981Z,20.05
2023-09-17T21:54:59.914Z,19.35
2023-09-17T21:57:27.218Z,20.25
2023-09-17T21:59:54.394Z,18.30
2023-09-17T22:02:21.387Z,19.65
2023-09-17T22:04:48.782Z,19.85
2023-09-17T22:07:15.795Z,18.77
2023-09-17T22:09:42.756Z,18.65
2023-09-17T22:12:12.076Z,18.60
2023-09-17T22:14:39.322Z,18.83
2023-09-17T22:17:06.363Z,18.98
2023-09-17T22:19:34.163Z,18.15
2023-09-17T22:22:01.175Z,19.88
2023-09-17T22:24:28.126Z,18.33
2023-09-17T22:26:56.373Z,19.02
2023-09-17T22:29:23.471Z,18.48
2023-09-17T22:31:50.526Z,19.25
2023-09-17T22:34:17.496Z,18.35
2023-09-17T22:36:44.483Z,18.88
2023-09-17T22:39:11.408Z,18.92
2023-09-17T22:41:38.351Z,19.38
2023-09-17T22:44:21.008Z,18.40
2023-09-17T22:46:50.191Z,19.50
2023-09-17T22:49:17.143Z,19.80
2023-09-17T22:51:44.014Z,20.08
2023-09-17T22:54:10.928Z,20.10
2023-09-17T22:56:37.882Z,20.60
2023-09-17T22:59:04.961Z,20.83
2023-09-17T23:01:33.624Z,20.55
2023-09-17T23:04:00.657Z,20.85
2023-09-17T23:06:27.911Z,20.77
2023-09-17T23:08:56.103Z,20.23
2023-09-17T23:11:23.183Z,20.88
2023-09-17T23:13:50.955Z,22.23
2023-09-17T23:16:18.130Z,21.50
2023-09-17T23:18:45.123Z,21.08
2023-09-17T23:21:16.034Z,21.75
2023-09-17T23:23:44.110Z,22.35
2023-09-17T23:26:13.549Z,22.50
2023-09-17T23:28:41.068Z,21.75
2023-09-17T23:31:11.134Z,21.10
2023-09-17T23:33:38.224Z,20.42
2023-09-17T23:36:05.737Z,22.08
2023-09-17T23:38:33.152Z,21.52
2023-09-17T23:41:00.182Z,22.73
2023-09-17T23:43:27.407Z,21.63
2023-09-17T23:45:57.272Z,21.33
2023-09-17T23:48:24.240Z,21.90
2023-09-17T23:50:53.519Z,21.27
2023-09-17T23:53:20.843Z,21.23
2023-09-17T23:55:49.270Z,21.55
2023-09-17T23:58:19.809Z,21.17
